Quincy Regional Baldwin Field
KUIN : rendu visible

Aérodrome :











RETROUVEZ-NOUS SUR...

 
LOGIN :

S'inscrire | Disclaimer

   EN    FR    IT 

 









Légende :    VFR   VFR Marginal   IFR   IFR Intensif   IFR Très Intensif
Visi : 
Plafond : 
>= 8 km
>= 3000ft
5 à 8 km
1000 à 3000 ft
1500m à 5 km
500 à 1000 ft
800 à 1500m
200 à 500 ft
< 800m
< 200 ft
Symboles :   Orages  Brouillard  Fortes neiges  Fortes précipitations  Vent > 20 kt






- Altitude de l'aérodrome : 768 ft
- Code IATA : UIN


KUIN - Quincy Regional Baldwin Field

DERNIER METAR :
  • 121054Z AUTO 32009KT 10SM CLR M14/M17 A3057 RMK AO2 SLP367 T11391167

METARs EXPIRÉS :
  • 120954Z AUTO 32008KT 10SM CLR M13/M17 A3057 RMK AO2 SLP368 T11331167
  • 120854Z AUTO 32009KT 10SM CLR M13/M16 A3057 RMK AO2 SLP367 T11281161 51004

TAF KUIN
Valide du 12 à 12h jusqu'au 13 à 12h UTC


121120Z 1212/1312 32008KT P6SM SKC
FM122200 VRB04KT P6SM SKC
FM130200 16007KT P6SM SCT250



MET'MAP, la Météo Aéronautique d'un coup d'oeil ! - Copyright ORBIFLY Décembre 2007 - Disclaimer

ORBIFLY MET'MAP TEAM :

Programmation & Développement : Alexandra Zaïnal
Conception & Développement : Baudouin d'Aumeries
Co-Programmation & Développement : Marc-Olivier Méhu
Soutien technique & logistique : Manuel Goepfert

Contact : metmap@orbifly.com




SOURCES & CREDITS :

   NOAA       Earth
Advisory